Time;durP1;ratioP1;P1;durP2;ratioP2;P2;SDS_P1;SDS_P2;PMS_P1;PMS_P2;Temp;Humidity;BMP_temperature;BMP_pressure;BME280_temperature;BME280_humidity;BME280_pressure;Samples;Min_cycle;Max_cycle;Signal;HPM_P1;HPM_P2
2023/04/03 00:01:29;;;;;;;6.05;1.75;;;;;;;3.97;55.88;102865.00;5048884;28;20078;-45
2023/04/03 00:03:55;;;;;;;6.55;1.77;;;;;;;3.93;55.86;102865.84;5045002;28;20035;-45
2023/04/03 00:06:21;;;;;;;3.92;1.42;;;;;;;3.90;56.18;102871.03;5040258;28;20075;-46
2023/04/03 00:08:47;;;;;;;3.75;1.52;;;;;;;3.90;56.07;102867.56;5042050;28;20036;-45
2023/04/03 00:11:12;;;;;;;3.40;1.02;;;;;;;3.87;56.12;102857.97;5041537;28;20365;-46
2023/04/03 00:13:39;;;;;;;9.40;1.40;;;;;;;3.87;56.11;102862.34;5048575;28;20055;-45
2023/04/03 00:16:05;;;;;;;5.55;1.77;;;;;;;3.85;56.07;102869.25;5039871;28;20056;-46
2023/04/03 00:18:31;;;;;;;7.18;1.23;;;;;;;3.88;55.72;102870.13;5043811;28;20573;-48
2023/04/03 00:20:56;;;;;;;2.70;1.00;;;;;;;3.84;55.97;102877.94;5048255;28;20102;-47
2023/04/03 00:23:23;;;;;;;8.68;1.63;;;;;;;3.81;55.88;102877.06;5051022;28;20514;-45
2023/04/03 00:25:49;;;;;;;9.65;2.13;;;;;;;3.85;55.95;102879.69;5060872;28;20076;-47
2023/04/03 00:28:15;;;;;;;3.90;1.02;;;;;;;3.80;55.91;102882.28;5054499;28;20037;-47
2023/04/03 00:30:40;;;;;;;3.90;1.08;;;;;;;3.77;55.86;102874.44;5044486;28;20033;-46
2023/04/03 00:33:06;;;;;;;5.45;1.17;;;;;;;3.69;56.03;102879.59;5045225;28;20115;-45
2023/04/03 00:35:34;;;;;;;4.95;1.08;;;;;;;3.69;56.18;102877.00;5049244;28;20055;-45
2023/04/03 00:38:00;;;;;;;8.77;1.45;;;;;;;3.72;56.09;102876.13;5051158;28;20032;-46
2023/04/03 00:40:27;;;;;;;7.28;1.50;;;;;;;3.74;56.12;102871.81;5050252;28;20021;-46
2023/04/03 00:42:58;;;;;;;6.72;1.50;;;;;;;3.72;56.09;102873.53;5051378;28;20016;-45
2023/04/03 00:45:45;;;;;;;5.95;1.45;;;;;;;3.71;56.11;102867.47;5054145;28;20021;-47
2023/04/03 00:48:16;;;;;;;4.40;1.10;;;;;;;3.69;56.10;102863.13;5053246;28;20028;-46
2023/04/03 00:50:43;;;;;;;4.40;1.02;;;;;;;3.71;55.86;102870.06;5052051;28;20075;-47
2023/04/03 00:53:14;;;;;;;2.72;0.98;;;;;;;3.70;55.96;102875.28;5042968;28;20029;-46
2023/04/03 00:55:42;;;;;;;2.47;0.80;;;;;;;3.63;56.17;102862.22;5044229;28;20044;-45
2023/04/03 00:58:08;;;;;;;8.70;1.35;;;;;;;3.63;56.00;102867.44;5042547;28;20055;-45
2023/04/03 01:00:35;;;;;;;6.10;1.52;;;;;;;3.62;56.25;102868.28;5044085;28;20478;-45
2023/04/03 01:03:01;;;;;;;7.68;1.75;;;;;;;3.64;56.12;102866.56;5042981;28;20028;-48
2023/04/03 01:05:26;;;;;;;5.30;1.35;;;;;;;3.66;56.06;102874.38;5043911;28;20098;-47
2023/04/03 01:07:53;;;;;;;4.72;1.27;;;;;;;3.65;56.00;102875.22;5045395;28;20053;-45
2023/04/03 01:10:20;;;;;;;5.43;1.48;;;;;;;3.60;56.06;102875.22;5048975;28;20035;-45
2023/04/03 01:12:49;;;;;;;5.18;1.60;;;;;;;3.56;56.22;102881.25;5049426;28;20025;-45
2023/04/03 01:15:22;;;;;;;3.22;1.20;;;;;;;3.57;56.18;102877.78;5050198;28;20793;-47
2023/04/03 01:18:02;;;;;;;6.13;1.63;;;;;;;3.57;56.13;102880.38;5041987;28;20044;-45
2023/04/03 01:20:35;;;;;;;6.47;1.13;;;;;;;3.55;56.17;102886.47;5041873;28;20075;-46
2023/04/03 01:23:10;;;;;;;4.47;1.10;;;;;;;3.53;56.11;102880.38;5049115;28;20082;-45
2023/04/03 01:25:42;;;;;;;3.85;1.27;;;;;;;3.49;56.26;102885.56;5050645;28;20387;-47
2023/04/03 01:28:10;;;;;;;3.45;1.17;;;;;;;3.49;56.15;102887.28;5049389;28;20198;-45
2023/04/03 01:31:15;;;;;;;13.20;1.58;;;;;;;3.43;56.25;102884.63;5042207;28;20051;-46
2023/04/03 01:33:42;;;;;;;6.07;1.52;;;;;;;3.40;56.16;102882.91;5005324;28;20029;-45
2023/04/03 01:36:08;;;;;;;5.43;1.08;;;;;;;3.38;56.22;102882.00;5049081;28;20049;-47
2023/04/03 01:38:34;;;;;;;3.78;0.93;;;;;;;3.34;56.44;102881.13;5044257;28;20067;-46
2023/04/03 01:41:00;;;;;;;9.00;1.27;;;;;;;3.37;56.44;102887.22;5049647;28;20044;-46
2023/04/03 01:43:26;;;;;;;7.82;1.85;;;;;;;3.36;56.35;102881.13;5058236;28;20495;-47
2023/04/03 01:45:54;;;;;;;8.45;1.52;;;;;;;3.37;56.22;102892.44;5050527;28;20036;-45
2023/04/03 01:48:19;;;;;;;8.73;1.88;;;;;;;3.38;56.38;102888.97;5052657;28;20112;-46
2023/04/03 01:50:45;;;;;;;7.43;1.25;;;;;;;3.35;56.32;102892.41;5053098;28;20113;-45
2023/04/03 01:53:11;;;;;;;4.07;1.33;;;;;;;3.35;56.45;102889.78;5047150;28;20395;-45
2023/04/03 01:55:36;;;;;;;4.25;1.30;;;;;;;3.33;56.38;102889.78;5040328;28;20035;-45
2023/04/03 01:58:02;;;;;;;6.05;1.23;;;;;;;3.28;56.44;102885.41;5049158;28;20029;-45
2023/04/03 02:00:27;;;;;;;4.20;1.63;;;;;;;3.25;56.61;102893.19;5045111;28;20391;-45
2023/04/03 02:02:53;;;;;;;8.80;1.60;;;;;;;3.23;56.30;102895.81;5046259;28;20394;-46
2023/04/03 02:05:18;;;;;;;4.85;2.28;;;;;;;3.24;56.65;102892.34;5039386;28;20021;-45
2023/04/03 02:07:44;;;;;;;6.85;1.45;;;;;;;3.28;56.77;102888.88;5042820;28;20052;-46
2023/04/03 02:10:10;;;;;;;4.82;0.70;;;;;;;3.26;56.58;102888.00;5047288;28;20118;-45
2023/04/03 02:12:35;;;;;;;5.78;1.65;;;;;;;3.20;56.44;102886.22;5046466;28;20021;-45
2023/04/03 02:15:01;;;;;;;8.70;2.67;;;;;;;3.19;56.51;102889.69;5044209;28;20037;-45
2023/04/03 02:17:26;;;;;;;13.82;2.38;;;;;;;3.17;56.68;102890.53;5032390;28;20041;-46
2023/04/03 02:19:52;;;;;;;6.88;1.50;;;;;;;3.18;56.64;102889.69;5037373;28;20056;-45
2023/04/03 02:22:18;;;;;;;5.18;1.80;;;;;;;3.16;56.79;102892.28;5037962;28;20037;-45
2023/04/03 02:24:43;;;;;;;11.35;1.70;;;;;;;3.16;57.00;102894.00;5046837;28;20037;-49
2023/04/03 02:27:09;;;;;;;7.85;1.75;;;;;;;3.11;56.87;102896.56;5041352;28;20087;-46
2023/04/03 02:29:35;;;;;;;8.20;1.60;;;;;;;3.11;56.84;102895.69;5044750;28;20048;-46
2023/04/03 02:32:00;;;;;;;5.05;1.40;;;;;;;3.11;56.99;102906.97;5049851;28;20115;-45
2023/04/03 02:34:25;;;;;;;4.50;1.80;;;;;;;3.12;56.71;102900.03;5036098;28;20495;-48
2023/04/03 02:36:51;;;;;;;4.63;1.73;;;;;;;3.11;56.97;102912.19;5048431;28;20025;-45
2023/04/03 02:39:16;;;;;;;3.30;1.20;;;;;;;3.10;56.69;102915.63;5042658;28;20112;-48
2023/04/03 02:41:42;;;;;;;3.47;1.30;;;;;;;3.11;56.93;102912.19;5045629;28;20037;-48
2023/04/03 02:44:10;;;;;;;10.27;1.90;;;;;;;3.04;56.96;102916.47;5046365;28;20026;-45
2023/04/03 02:46:36;;;;;;;3.92;1.70;;;;;;;3.01;56.96;102916.41;5045669;28;20025;-45
2023/04/03 02:49:02;;;;;;;6.38;1.42;;;;;;;3.00;57.30;102913.81;5045507;28;20021;-46
2023/04/03 02:51:27;;;;;;;3.78;0.80;;;;;;;3.00;56.87;102919.88;5048884;28;20029;-45
2023/04/03 02:53:53;;;;;;;9.45;1.30;;;;;;;2.96;57.15;102912.91;5038950;28;20033;-46
2023/04/03 02:56:20;;;;;;;7.45;2.35;;;;;;;2.95;57.22;102921.56;5046850;28;20501;-47
2023/04/03 02:58:45;;;;;;;4.72;1.27;;;;;;;2.92;57.19;102916.34;5046563;28;20033;-47
2023/04/03 03:01:11;;;;;;;9.52;2.15;;;;;;;2.88;57.52;102919.78;5043924;28;20043;-48
2023/04/03 03:03:37;;;;;;;6.05;1.38;;;;;;;2.88;57.28;102922.38;5039431;28;20099;-47
2023/04/03 03:06:08;;;;;;;6.80;2.17;;;;;;;2.81;57.84;102913.63;5043077;28;20083;-45
2023/04/03 03:08:34;;;;;;;4.78;1.30;;;;;;;2.80;57.40;102921.44;5052150;28;20120;-46
2023/04/03 03:11:00;;;;;;;8.13;1.30;;;;;;;2.77;57.71;102917.06;5050738;28;20032;-45
2023/04/03 03:13:25;;;;;;;7.18;1.23;;;;;;;2.77;57.97;102913.59;5051664;28;20021;-45
2023/04/03 03:15:51;;;;;;;2.95;1.65;;;;;;;2.76;57.86;102919.66;5042966;28;21422;-50
2023/04/03 03:18:16;;;;;;;5.80;0.82;;;;;;;2.80;57.74;102921.44;5045433;28;20691;-45
2023/04/03 03:20:42;;;;;;;6.38;1.45;;;;;;;2.85;57.77;102930.13;5043768;28;20033;-45
2023/04/03 03:23:07;;;;;;;4.03;1.13;;;;;;;2.87;57.74;102928.44;5042768;28;20032;-45
2023/04/03 03:25:33;;;;;;;2.75;0.70;;;;;;;2.88;57.65;102932.78;5047865;28;20096;-45
2023/04/03 03:27:58;;;;;;;4.95;1.00;;;;;;;2.84;57.85;102925.78;5040449;28;20029;-45
2023/04/03 03:30:24;;;;;;;2.00;1.02;;;;;;;2.85;57.71;102930.13;5041330;28;20029;-46
2023/04/03 03:32:49;;;;;;;3.50;0.85;;;;;;;2.85;57.65;102932.75;5044299;28;20406;-45
2023/04/03 03:35:15;;;;;;;5.90;1.70;;;;;;;2.85;57.62;102930.13;5044932;28;20017;-47
2023/04/03 03:37:40;;;;;;;7.30;2.63;;;;;;;2.83;58.14;102931.84;5044073;28;20053;-46
2023/04/03 03:40:06;;;;;;;9.00;2.88;;;;;;;2.88;57.86;102935.38;5047046;28;20030;-47
2023/04/03 03:42:32;;;;;;;2.28;0.88;;;;;;;2.90;57.94;102942.31;5045133;28;20041;-45
2023/04/03 03:44:57;;;;;;;4.97;1.98;;;;;;;2.86;57.88;102934.47;5048277;28;20413;-46
2023/04/03 03:47:23;;;;;;;4.03;1.67;;;;;;;2.86;57.71;102937.09;5041740;28;20107;-46
2023/04/03 03:49:48;;;;;;;15.50;2.38;;;;;;;2.88;57.65;102936.22;5048016;28;20032;-49
2023/04/03 03:52:13;;;;;;;2.53;0.85;;;;;;;2.84;57.77;102939.69;5040343;28;20025;-45
2023/04/03 03:54:39;;;;;;;6.18;1.92;;;;;;;2.85;57.92;102943.13;5044567;28;20115;-46
2023/04/03 03:57:05;;;;;;;7.47;1.27;;;;;;;2.84;57.85;102951.78;5046786;28;20095;-45
2023/04/03 03:59:30;;;;;;;3.53;1.23;;;;;;;2.85;57.75;102944.03;5050353;28;20057;-45
2023/04/03 04:01:56;;;;;;;4.05;1.13;;;;;;;2.80;58.11;102944.84;5046233;28;20099;-45
2023/04/03 04:04:21;;;;;;;4.95;2.10;;;;;;;2.80;57.94;102942.25;5042210;28;20071;-45
2023/04/03 04:06:46;;;;;;;12.20;4.15;;;;;;;2.74;58.01;102950.81;5049628;28;20040;-44
2023/04/03 04:09:12;;;;;;;9.95;2.25;;;;;;;2.73;58.01;102955.16;5037105;28;20111;-46
2023/04/03 04:11:39;;;;;;;8.27;1.67;;;;;;;2.73;57.75;102944.75;5046424;28;20033;-46
2023/04/03 04:14:05;;;;;;;5.22;1.00;;;;;;;2.71;58.24;102953.41;5046860;28;20025;-47
2023/04/03 04:16:31;;;;;;;5.43;1.02;;;;;;;2.69;57.95;102957.72;5040099;28;20032;-45
2023/04/03 04:18:56;;;;;;;6.55;2.25;;;;;;;2.70;58.07;102954.28;5045741;28;20024;-45
2023/04/03 04:21:21;;;;;;;4.43;1.00;;;;;;;2.68;57.97;102946.44;5047773;28;20040;-47
2023/04/03 04:23:47;;;;;;;3.45;0.90;;;;;;;2.71;58.07;102948.22;5051106;28;20733;-45
2023/04/03 04:26:12;;;;;;;7.88;1.45;;;;;;;2.68;58.09;102949.03;5043181;28;20059;-45
2023/04/03 04:28:38;;;;;;;17.48;6.15;;;;;;;2.69;58.14;102952.53;5035652;28;20047;-47
2023/04/03 04:31:03;;;;;;;10.55;3.38;;;;;;;2.69;57.88;102955.97;5045334;28;20029;-45
2023/04/03 04:33:29;;;;;;;4.05;1.40;;;;;;;2.71;57.79;102956.88;5035773;28;20033;-46
2023/04/03 04:35:54;;;;;;;5.32;1.27;;;;;;;2.68;57.83;102956.84;5047056;28;20021;-47
2023/04/03 04:38:19;;;;;;;7.00;1.33;;;;;;;2.69;57.82;102960.31;5047376;28;20118;-47
2023/04/03 04:40:45;;;;;;;13.10;1.60;;;;;;;2.68;58.26;102959.44;5047919;28;20681;-45
2023/04/03 04:43:14;;;;;;;1.67;1.10;;;;;;;2.68;57.86;102958.56;5039954;28;20033;-45
2023/04/03 04:45:39;;;;;;;3.35;0.90;;;;;;;2.68;58.08;102959.44;5040632;28;20043;-45
2023/04/03 04:48:04;;;;;;;3.22;1.40;;;;;;;2.66;58.09;102958.53;5037782;28;20029;-47
2023/04/03 04:50:30;;;;;;;5.28;1.23;;;;;;;2.68;58.27;102964.63;5042929;28;20037;-45
2023/04/03 04:52:56;;;;;;;2.85;0.90;;;;;;;2.66;58.36;102955.94;5046656;28;20041;-46
2023/04/03 04:55:21;;;;;;;6.55;1.05;;;;;;;2.66;58.05;102960.28;5029951;28;20620;-46
2023/04/03 04:57:46;;;;;;;6.18;0.98;;;;;;;2.58;58.20;102958.44;5047837;28;20034;-45
2023/04/03 05:00:13;;;;;;;2.17;0.82;;;;;;;2.58;58.30;102957.59;5039382;28;20550;-45
2023/04/03 05:02:38;;;;;;;11.60;1.70;;;;;;;2.60;58.14;102966.28;5040096;28;20044;-45
2023/04/03 05:05:04;;;;;;;8.27;2.10;;;;;;;2.60;58.15;102958.50;5044097;28;20022;-47
2023/04/03 05:07:29;;;;;;;9.82;1.17;;;;;;;2.59;57.99;102960.19;5043798;28;20029;-47
2023/04/03 05:09:55;;;;;;;2.20;0.85;;;;;;;2.62;58.16;102964.59;5048501;28;20494;-45
2023/04/03 05:12:20;;;;;;;2.35;0.70;;;;;;;2.67;57.72;102962.88;5055662;28;20032;-45
2023/04/03 05:14:46;;;;;;;6.13;0.82;;;;;;;2.68;57.85;102969.84;5044501;28;20036;-51
2023/04/03 05:17:11;;;;;;;3.42;1.38;;;;;;;2.69;57.71;102970.72;5016507;28;20083;-46
2023/04/03 05:19:37;;;;;;;3.03;0.95;;;;;;;2.70;57.63;102967.28;5045761;28;20063;-45
2023/04/03 05:22:02;;;;;;;3.03;0.95;;;;;;;2.72;57.61;102978.56;5052685;28;20024;-46
2023/04/03 05:24:27;;;;;;;2.65;0.73;;;;;;;2.73;57.38;102975.97;5042752;28;20032;-49
2023/04/03 05:26:53;;;;;;;4.30;1.10;;;;;;;2.69;57.31;102971.56;5039149;28;20487;-47
2023/04/03 05:29:18;;;;;;;4.15;1.17;;;;;;;2.68;57.34;102969.84;5044111;28;20390;-45
2023/04/03 05:31:44;;;;;;;2.85;1.10;;;;;;;2.69;57.60;102976.78;5033996;28;20471;-49
2023/04/03 05:34:11;;;;;;;6.18;1.40;;;;;;;2.69;57.33;102974.19;5032933;28;20040;-46
2023/04/03 05:36:36;;;;;;;4.10;1.65;;;;;;;2.74;57.30;102969.03;5047009;28;20750;-46
2023/04/03 05:39:02;;;;;;;4.85;0.85;;;;;;;2.74;57.02;102972.50;5053065;28;20119;-45
2023/04/03 05:41:27;;;;;;;5.68;2.15;;;;;;;2.76;57.21;102982.91;5053486;28;20119;-49
2023/04/03 05:43:53;;;;;;;6.32;1.17;;;;;;;2.82;57.13;102982.09;5042809;28;20033;-45
2023/04/03 05:46:20;;;;;;;3.80;1.30;;;;;;;2.81;57.09;102985.56;5040093;28;20379;-47
2023/04/03 05:48:45;;;;;;;3.97;1.00;;;;;;;2.86;56.78;102992.59;5051633;28;20029;-45
2023/04/03 05:51:22;;;;;;;4.15;1.00;;;;;;;2.88;56.71;102987.38;5031230;28;20043;-46
2023/04/03 05:53:48;;;;;;;13.10;5.20;;;;;;;2.95;56.93;102991.78;5021776;28;20033;-45
2023/04/03 05:56:14;;;;;;;7.70;1.60;;;;;;;3.02;56.64;102995.34;5043168;28;20074;-47
2023/04/03 05:58:39;;;;;;;6.20;0.80;;;;;;;3.09;56.28;102991.94;5036772;28;20039;-47
2023/04/03 06:01:05;;;;;;;4.10;1.02;;;;;;;3.18;56.10;102996.34;5030699;28;20399;-45
2023/04/03 06:03:31;;;;;;;3.95;1.42;;;;;;;3.28;56.06;102992.97;5045360;28;20079;-45
2023/04/03 06:05:56;;;;;;;9.02;1.73;;;;;;;3.37;55.85;103001.72;5047772;28;20039;-45
2023/04/03 06:08:23;;;;;;;7.43;1.30;;;;;;;3.47;55.53;102998.34;5043786;28;20055;-46
2023/04/03 06:10:50;;;;;;;2.17;0.70;;;;;;;3.48;55.10;102993.13;5041789;28;20056;-45
2023/04/03 06:13:15;;;;;;;4.43;0.98;;;;;;;3.41;54.97;102995.69;5036604;28;20510;-45
2023/04/03 06:15:41;;;;;;;2.30;0.80;;;;;;;3.43;55.52;102994.84;5033710;28;20029;-51
2023/04/03 06:18:06;;;;;;;3.80;1.05;;;;;;;3.45;55.19;102994.84;5033910;28;20110;-46
2023/04/03 06:20:32;;;;;;;4.28;1.15;;;;;;;3.49;54.96;102994.03;5046811;28;20040;-45
2023/04/03 06:22:58;;;;;;;2.95;0.95;;;;;;;3.55;54.78;103001.91;5030565;28;20028;-46
2023/04/03 06:25:23;;;;;;;4.30;0.95;;;;;;;3.58;54.78;103001.91;5055215;28;20017;-46
2023/04/03 06:27:49;;;;;;;5.22;1.33;;;;;;;3.55;54.89;103007.09;5048377;28;20116;-46
2023/04/03 06:30:14;;;;;;;3.90;0.77;;;;;;;3.55;54.69;103003.63;5044128;28;20033;-45
2023/04/03 06:32:40;;;;;;;4.82;2.15;;;;;;;3.52;54.83;103009.69;5045234;28;20021;-45
2023/04/03 06:35:06;;;;;;;3.50;0.70;;;;;;;3.58;54.58;103014.91;5040295;28;20027;-46
2023/04/03 06:37:32;;;;;;;2.75;0.90;;;;;;;3.57;54.78;103015.78;5043226;28;20086;-45
2023/04/03 06:39:57;;;;;;;3.90;1.20;;;;;;;3.55;54.91;103017.50;5040606;28;20112;-45
2023/04/03 06:42:23;;;;;;;4.70;1.27;;;;;;;3.56;54.87;103024.44;5044432;28;20040;-46
2023/04/03 06:44:49;;;;;;;2.00;0.80;;;;;;;3.60;54.90;103026.22;5045138;28;20080;-45
2023/04/03 06:47:15;;;;;;;3.58;0.93;;;;;;;3.59;54.71;103031.44;5048457;28;20035;-45
2023/04/03 06:49:41;;;;;;;8.82;1.40;;;;;;;3.58;54.74;103027.94;5032054;28;20196;-45
2023/04/03 06:52:07;;;;;;;4.35;1.40;;;;;;;3.63;54.70;103035.81;5038537;28;20021;-45
2023/04/03 06:54:33;;;;;;;5.45;1.27;;;;;;;3.65;54.93;103032.34;5031434;28;20029;-49
2023/04/03 06:56:59;;;;;;;3.22;0.70;;;;;;;3.73;54.75;103041.94;5041717;28;20102;-45
2023/04/03 06:59:26;;;;;;;7.40;1.38;;;;;;;3.76;54.71;103048.06;5045470;28;20503;-45
2023/04/03 07:01:51;;;;;;;2.97;1.05;;;;;;;3.75;54.48;103045.44;5044303;28;20037;-45
2023/04/03 07:04:19;;;;;;;2.60;1.13;;;;;;;3.78;54.46;103051.53;5034505;28;20044;-48
2023/04/03 07:06:46;;;;;;;4.13;1.25;;;;;;;3.83;54.63;103056.78;5039910;28;20033;-45
2023/04/03 07:09:12;;;;;;;3.90;1.35;;;;;;;3.90;54.50;103057.72;5049419;28;20033;-45
2023/04/03 07:11:38;;;;;;;3.22;0.98;;;;;;;3.95;53.94;103054.28;5040837;28;20033;-47
2023/04/03 07:14:03;;;;;;;2.70;1.05;;;;;;;3.99;54.05;103060.38;5038891;28;20503;-45
2023/04/03 07:16:32;;;;;;;7.70;1.38;;;;;;;4.06;54.08;103061.28;5044820;28;20036;-45
2023/04/03 07:18:57;;;;;;;3.20;1.10;;;;;;;4.19;53.77;103064.84;5040766;28;20036;-45
2023/04/03 07:21:24;;;;;;;6.40;1.30;;;;;;;4.22;53.71;103067.47;5039777;28;20037;-46
2023/04/03 07:23:49;;;;;;;2.88;1.00;;;;;;;4.30;53.66;103064.94;5018889;28;20072;-47
2023/04/03 07:26:15;;;;;;;6.38;1.45;;;;;;;4.29;53.85;103071.00;5031394;28;20116;-47
2023/04/03 07:28:41;;;;;;;4.78;1.63;;;;;;;4.31;53.70;103071.88;5022293;28;20036;-49
2023/04/03 07:31:10;;;;;;;5.28;1.23;;;;;;;4.32;53.61;103063.16;5038788;28;20032;-44
2023/04/03 07:33:37;;;;;;;4.90;1.42;;;;;;;4.35;53.29;103060.59;5040942;28;20377;-45
2023/04/03 07:36:03;;;;;;;2.92;1.20;;;;;;;4.37;53.64;103070.19;5042884;28;20036;-46
2023/04/03 07:38:28;;;;;;;7.53;1.98;;;;;;;4.46;53.36;103065.88;5048838;28;20033;-45
2023/04/03 07:40:54;;;;;;;2.38;0.88;;;;;;;4.49;53.23;103063.28;5047449;28;20029;-45
2023/04/03 07:43:21;;;;;;;7.32;0.88;;;;;;;4.56;53.09;103065.03;5046579;28;20032;-47
2023/04/03 07:45:50;;;;;;;8.23;0.93;;;;;;;4.56;52.72;103070.25;5049037;28;20471;-45
2023/04/03 07:48:17;;;;;;;14.75;1.42;;;;;;;4.57;52.50;103075.50;5048060;28;20063;-45
2023/04/03 07:50:43;;;;;;;2.90;1.08;;;;;;;4.60;52.36;103073.78;5049693;28;20021;-46
2023/04/03 07:53:09;;;;;;;2.08;1.05;;;;;;;4.65;51.94;103066.81;5038726;28;20559;-44
2023/04/03 07:55:40;;;;;;;4.95;1.13;;;;;;;4.68;51.57;103072.06;5042842;28;20025;-45
2023/04/03 07:58:06;;;;;;;3.22;1.73;;;;;;;4.68;51.61;103072.94;5047317;28;20391;-45
2023/04/03 08:00:31;;;;;;;2.67;0.88;;;;;;;4.77;51.43;103074.69;5046740;28;20025;-45
2023/04/03 08:02:56;;;;;;;5.35;1.55;;;;;;;4.88;51.75;103065.19;5042417;28;20498;-45
2023/04/03 08:05:22;;;;;;;6.65;1.35;;;;;;;5.02;51.41;103061.75;5046523;28;20025;-46
2023/04/03 08:07:48;;;;;;;3.28;1.13;;;;;;;5.10;51.20;103067.00;5046751;28;20636;-47
2023/04/03 08:10:15;;;;;;;2.30;0.95;;;;;;;5.18;50.87;103071.38;5052751;28;20025;-45
2023/04/03 08:12:40;;;;;;;6.10;1.83;;;;;;;5.27;50.95;103067.03;5042975;28;20495;-44
2023/04/03 08:15:08;;;;;;;7.28;1.75;;;;;;;5.39;50.89;103072.25;5046701;28;20033;-45
2023/04/03 08:17:33;;;;;;;3.25;0.90;;;;;;;5.51;50.86;103074.03;5041406;28;20045;-46
2023/04/03 08:19:59;;;;;;;2.25;1.20;;;;;;;5.45;50.50;103079.22;5047065;28;20029;-46
2023/04/03 08:22:24;;;;;;;9.25;1.65;;;;;;;5.55;50.35;103067.94;5046505;28;20037;-46
2023/04/03 08:24:49;;;;;;;3.08;1.05;;;;;;;5.48;50.27;103067.06;5028322;28;20025;-45
2023/04/03 08:27:15;;;;;;;1.52;0.75;;;;;;;5.45;50.16;103072.28;5047066;28;20029;-45
2023/04/03 08:29:41;;;;;;;3.05;0.90;;;;;;;5.52;50.21;103067.94;5046599;28;20502;-45
2023/04/03 08:32:06;;;;;;;5.57;1.45;;;;;;;5.61;49.90;103073.16;5040907;28;21586;-45
2023/04/03 08:34:34;;;;;;;5.35;1.52;;;;;;;5.72;50.05;103069.69;5045390;28;20049;-47
2023/04/03 08:37:00;;;;;;;5.15;1.65;;;;;;;5.80;49.65;103071.44;5048116;28;20039;-47
2023/04/03 08:39:26;;;;;;;4.25;1.17;;;;;;;5.86;49.85;103072.28;5042845;28;20037;-45
2023/04/03 08:41:54;;;;;;;2.83;1.17;;;;;;;6.02;49.87;103071.44;5037421;28;20032;-46
2023/04/03 08:44:19;;;;;;;6.82;1.15;;;;;;;6.06;49.11;103070.56;5050940;28;20047;-46
2023/04/03 08:47:24;;;;;;;2.38;1.05;;;;;;;6.13;48.07;103070.53;5050226;28;20482;-45
2023/04/03 08:49:53;;;;;;;6.18;1.05;;;;;;;6.09;48.57;103069.69;5051222;28;20035;-45
2023/04/03 08:52:28;;;;;;;6.57;1.55;;;;;;;6.05;48.67;103067.97;5052525;28;20036;-45
2023/04/03 08:55:02;;;;;;;5.32;1.23;;;;;;;6.02;48.79;103057.50;5051081;28;20098;-45
2023/04/03 08:57:44;;;;;;;3.55;0.95;;;;;;;6.03;49.09;103061.88;5044445;28;20037;-47
2023/04/03 09:00:25;;;;;;;2.25;0.75;;;;;;;6.04;49.24;103072.31;5049065;28;20017;-45
2023/04/03 09:02:56;;;;;;;6.40;1.63;;;;;;;6.03;48.66;103075.78;5052698;28;20025;-45
2023/04/03 09:05:47;;;;;;;10.40;3.85;;;;;;;5.97;48.78;103075.78;5049551;28;20033;-45
2023/04/03 09:08:29;;;;;;;4.00;1.05;;;;;;;5.85;49.61;103081.00;5051307;28;20055;-45
2023/04/03 09:11:07;;;;;;;5.75;0.95;;;;;;;5.86;49.75;103074.91;5047296;28;20052;-46
2023/04/03 09:13:51;;;;;;;4.57;0.90;;;;;;;5.88;50.02;103076.66;5051171;28;20036;-45
2023/04/03 09:16:49;;;;;;;6.78;1.25;;;;;;;5.91;49.96;103088.84;5042636;28;20394;-45
2023/04/03 09:19:57;;;;;;;3.28;0.98;;;;;;;5.90;50.08;103079.25;5045119;28;20100;-45
2023/04/03 09:22:31;;;;;;;7.47;1.00;;;;;;;5.94;50.54;103087.09;5046138;28;20024;-45
2023/04/03 09:25:15;;;;;;;7.28;1.10;;;;;;;5.94;50.15;103076.63;5047484;28;20070;-46
2023/04/03 09:27:41;;;;;;;3.85;1.15;;;;;;;5.94;50.55;103086.25;5049560;28;20036;-49
2023/04/03 09:30:12;;;;;;;4.35;1.00;;;;;;;5.98;50.54;103080.13;5049928;28;20037;-45
2023/04/03 09:32:38;;;;;;;3.08;0.82;;;;;;;6.05;50.39;103081.91;5048216;28;20029;-45
2023/04/03 09:35:31;;;;;;;6.40;1.10;;;;;;;6.14;50.06;103080.13;5042674;28;20089;-45
2023/04/03 09:38:09;;;;;;;9.95;1.25;;;;;;;6.29;50.46;103082.72;5044762;28;20048;-45
2023/04/03 09:40:40;;;;;;;6.90;1.60;;;;;;;6.43;49.90;103074.00;5044839;28;20025;-47
2023/04/03 09:43:21;;;;;;;6.25;0.98;;;;;;;6.51;49.18;103070.44;5049959;28;20410;-46
2023/04/03 09:45:49;;;;;;;3.85;2.15;;;;;;;6.61;49.28;103073.06;5044822;28;20016;-48
2023/04/03 09:48:14;;;;;;;4.25;1.25;;;;;;;6.61;49.13;103058.22;5048445;28;20055;-45
2023/04/03 09:51:04;;;;;;;3.78;1.02;;;;;;;6.68;48.12;103067.78;5052927;28;20396;-46
2023/04/03 09:53:33;;;;;;;2.78;1.02;;;;;;;6.70;48.40;103058.19;5045061;28;20178;-46
2023/04/03 09:56:00;;;;;;;3.90;1.13;;;;;;;6.77;48.56;103061.66;5050687;28;20044;-47
2023/04/03 09:58:40;;;;;;;2.65;0.90;;;;;;;6.90;47.09;103053.75;5046942;28;20114;-45
2023/04/03 10:01:20;;;;;;;3.97;0.95;;;;;;;7.02;47.98;103053.66;5051544;28;20021;-45
2023/04/03 10:03:46;;;;;;;4.97;0.93;;;;;;;6.89;46.03;103059.84;5039383;28;20082;-49
2023/04/03 10:06:46;;;;;;;3.90;0.98;;;;;;;6.85;45.18;103045.91;5054888;28;20028;-46
2023/04/03 10:09:18;;;;;;;3.88;0.95;;;;;;;6.78;46.56;103054.66;5045601;28;20033;-46
2023/04/03 10:12:00;;;;;;;3.65;1.15;;;;;;;6.78;46.30;103049.44;5054366;28;20051;-47
2023/04/03 10:14:26;;;;;;;4.33;1.10;;;;;;;6.82;47.00;103045.94;5031667;28;20087;-45
2023/04/03 10:16:57;;;;;;;5.47;0.70;;;;;;;6.93;46.25;103036.25;5045325;28;20310;-45
2023/04/03 10:19:35;;;;;;;3.55;0.82;;;;;;;6.97;45.16;103034.50;5043123;28;20525;-46
2023/04/03 10:22:28;;;;;;;2.67;1.10;;;;;;;6.98;44.96;103037.13;5038898;28;20032;-45
2023/04/03 10:24:56;;;;;;;;;;;;;;;7.02;44.81;103048.44;5035450;28;20089;-46
2023/04/03 10:27:34;;;;;;;2.25;0.93;;;;;;;6.89;45.74;103037.16;5049908;28;19917;-45
2023/04/03 10:30:08;;;;;;;6.47;1.17;;;;;;;6.88;46.34;103029.31;5045049;28;20025;-45
2023/04/03 10:32:37;;;;;;;19.38;2.08;;;;;;;6.84;46.68;103037.19;5033571;28;20020;-45
2023/04/03 10:35:25;;;;;;;4.85;1.50;;;;;;;6.84;44.97;103028.47;5042360;28;20107;-45
2023/04/03 10:38:04;;;;;;;3.22;0.80;;;;;;;6.96;46.20;103033.63;5015780;28;20064;-46
2023/04/03 10:40:35;;;;;;;1.75;0.90;;;;;;;6.97;46.31;103024.91;5052654;28;20930;-45
2023/04/03 10:43:13;;;;;;;1.75;0.73;;;;;;;6.87;46.06;103033.69;5058710;28;20024;-46
2023/04/03 10:46:16;;;;;;;1.85;0.90;;;;;;;6.78;44.91;103028.50;5051453;28;20021;-45
2023/04/03 10:49:00;;;;;;;2.47;1.25;;;;;;;6.77;46.47;103032.88;5009128;28;20041;-45
2023/04/03 10:51:37;;;;;;;1.30;1.15;;;;;;;6.87;46.74;103033.69;5039535;28;20028;-45
2023/04/03 10:54:26;;;;;;;2.42;0.70;;;;;;;6.90;46.36;103031.03;5026497;28;20032;-45
2023/04/03 10:57:01;;;;;;;3.78;1.30;;;;;;;6.86;45.68;103022.34;5037272;28;20029;-47
2023/04/03 10:59:44;;;;;;;3.83;0.90;;;;;;;6.91;46.08;103031.94;5046207;28;20043;-47
2023/04/03 11:02:13;;;;;;;2.50;1.17;;;;;;;6.99;46.13;103027.50;5045729;28;20057;-46
2023/04/03 11:04:43;;;;;;;2.58;0.88;;;;;;;7.03;46.47;103028.38;5046212;28;20022;-46
2023/04/03 11:07:19;;;;;;;2.20;0.65;;;;;;;7.03;45.57;103029.22;5043792;28;20488;-48
2023/04/03 11:09:48;;;;;;;9.38;2.97;;;;;;;7.13;45.83;103023.03;5045633;28;20120;-45
2023/04/03 11:12:47;;;;;;;7.45;2.25;;;;;;;6.97;45.17;103017.06;5048348;28;20035;-45
2023/04/03 11:15:17;;;;;;;4.70;0.95;;;;;;;6.94;46.11;103014.44;5014987;28;20028;-45
2023/04/03 11:17:58;;;;;;;1.67;1.00;;;;;;;6.95;46.04;103016.19;5035241;28;20037;-45
2023/04/03 11:20:32;;;;;;;6.05;1.85;;;;;;;6.96;46.25;103001.34;5048048;28;20223;-45
2023/04/03 11:23:05;;;;;;;12.75;3.50;;;;;;;7.00;46.58;103011.81;5043859;28;20041;-44
2023/04/03 11:25:34;;;;;;;11.10;1.73;;;;;;;7.01;46.53;103003.06;5044722;28;20064;-45
2023/04/03 11:28:03;;;;;;;3.55;0.88;;;;;;;6.90;47.22;103002.25;5030124;28;20052;-45
2023/04/03 11:30:39;;;;;;;6.53;1.17;;;;;;;6.88;47.19;102998.78;5044711;28;20518;-49
2023/04/03 11:33:29;;;;;;;5.93;1.42;;;;;;;6.88;46.90;102996.19;5040570;28;20044;-46
2023/04/03 11:35:59;;;;;;;3.42;1.40;;;;;;;6.89;47.38;102990.03;5047375;28;20033;-45
2023/04/03 11:38:39;;;;;;;5.22;2.03;;;;;;;7.03;47.17;102991.72;5044749;28;20017;-47
2023/04/03 11:41:06;;;;;;;3.65;1.25;;;;;;;7.07;47.45;102988.19;5050261;28;20058;-45
2023/04/03 11:43:33;;;;;;;4.18;1.25;;;;;;;6.97;47.66;102997.84;5047780;28;20029;-47